Time;durP1;ratioP1;P1;durP2;ratioP2;P2;SDS_P1;SDS_P2;PMS_P1;PMS_P2;Temp;Humidity;BMP_temperature;BMP_pressure;BME280_temperature;BME280_humidity;BME280_pressure;Samples;Min_cycle;Max_cycle;Signal;HPM_P1;HPM_P2
2023/01/11 00:01:06;;;;;;;6.97;2.67;;;;;;;24.96;35.88;101135.44;5092547;28;20027;-44
2023/01/11 00:03:35;;;;;;;8.35;2.42;;;;;;;24.96;35.93;101135.44;5092654;28;20392;-41
2023/01/11 00:06:04;;;;;;;6.60;2.90;;;;;;;24.89;35.95;101124.00;5106981;28;20020;-42
2023/01/11 00:08:32;;;;;;;9.15;3.13;;;;;;;24.93;35.91;101125.81;5112905;28;20032;-41
2023/01/11 00:11:01;;;;;;;7.78;3.00;;;;;;;24.88;35.78;101136.25;5112964;28;20023;-40
2023/01/11 00:13:30;;;;;;;6.80;2.20;;;;;;;24.86;35.70;101139.69;5116214;28;20034;-46
2023/01/11 00:16:05;;;;;;;5.97;2.40;;;;;;;24.82;36.32;101138.78;5116527;28;20099;-42
2023/01/11 00:18:33;;;;;;;6.05;2.22;;;;;;;24.94;35.88;101155.53;5116740;28;20467;-43
2023/01/11 00:21:04;;;;;;;8.25;2.28;;;;;;;24.86;35.74;101163.31;5116697;28;20024;-40
2023/01/11 00:23:34;;;;;;;6.82;2.35;;;;;;;24.81;36.07;101154.53;5098068;28;20034;-45
2023/01/11 00:26:05;;;;;;;8.68;2.38;;;;;;;24.78;36.18;101154.47;5115768;28;20024;-41
2023/01/11 00:28:33;;;;;;;6.00;2.28;;;;;;;24.83;35.71;101163.28;5115660;28;20055;-44
2023/01/11 00:31:02;;;;;;;5.72;2.03;;;;;;;24.85;35.83;101165.06;5115640;28;20050;-40
2023/01/11 00:33:30;;;;;;;7.65;2.35;;;;;;;24.82;35.69;101167.66;5115961;28;20024;-41
2023/01/11 00:35:59;;;;;;;6.75;2.45;;;;;;;24.79;35.83;101182.47;5097817;28;20080;-39
2023/01/11 00:39:07;;;;;;;6.88;2.40;;;;;;;25.00;35.59;101174.84;5116102;28;20022;-41
2023/01/11 00:49:38;;;;;;;7.70;2.70;;;;;;;24.87;35.97;101186.06;5108214;28;20044;-42
2023/01/11 00:52:08;;;;;;;6.65;2.20;;;;;;;24.80;35.91;101190.38;5115623;28;20439;-42
2023/01/11 00:54:37;;;;;;;7.28;1.98;;;;;;;24.80;35.62;101179.00;5115567;28;20035;-41
2023/01/11 00:57:06;;;;;;;7.68;2.30;;;;;;;24.78;35.79;101186.84;5115143;28;20102;-43
2023/01/11 00:59:35;;;;;;;7.25;2.35;;;;;;;24.78;35.67;101185.97;5097439;28;20036;-43
2023/01/11 01:02:04;;;;;;;7.97;2.40;;;;;;;24.75;36.08;101188.53;5115360;28;20103;-42
2023/01/11 01:04:33;;;;;;;6.22;2.15;;;;;;;24.77;36.07;101185.06;5115281;28;20028;-41
2023/01/11 01:07:02;;;;;;;6.82;2.08;;;;;;;24.77;36.03;101199.94;5115160;28;20088;-42
2023/01/11 01:09:31;;;;;;;7.32;2.70;;;;;;;24.82;36.06;101187.78;5096892;28;20038;-42
2023/01/11 01:12:01;;;;;;;5.65;2.15;;;;;;;24.77;35.94;101190.31;5097159;28;20386;-42
2023/01/11 01:14:30;;;;;;;8.45;2.33;;;;;;;24.76;36.20;101185.94;5115100;28;20057;-43
2023/01/11 01:17:01;;;;;;;5.35;1.80;;;;;;;24.75;35.82;101197.28;5114959;28;20497;-41
2023/01/11 01:19:31;;;;;;;5.97;2.35;;;;;;;24.75;36.11;101185.91;5115312;28;20408;-42
2023/01/11 01:22:00;;;;;;;6.28;2.00;;;;;;;24.78;35.72;101199.09;5114578;28;20023;-41
2023/01/11 01:24:29;;;;;;;7.15;2.03;;;;;;;24.75;35.85;101201.66;5114724;28;20629;-44
2023/01/11 01:26:58;;;;;;;5.40;2.00;;;;;;;24.78;36.14;101207.81;5115070;28;20486;-41
2023/01/11 01:29:27;;;;;;;6.38;1.90;;;;;;;24.72;36.06;101213.00;5115031;28;20026;-42
2023/01/11 01:31:56;;;;;;;8.00;2.60;;;;;;;24.75;36.01;101205.16;5114401;28;20027;-46
2023/01/11 01:34:25;;;;;;;6.82;2.33;;;;;;;24.77;35.82;101206.06;5115029;28;20397;-44
2023/01/11 01:36:54;;;;;;;7.95;2.63;;;;;;;24.72;35.64;101224.38;5114580;28;20027;-42
2023/01/11 01:39:22;;;;;;;7.35;2.55;;;;;;;24.78;35.76;101218.31;5115046;28;20386;-40
2023/01/11 01:41:51;;;;;;;7.50;2.10;;;;;;;24.83;35.91;101228.88;5114987;28;20070;-43
2023/01/11 01:44:57;;;;;;;7.88;2.47;;;;;;;24.73;35.79;101225.25;5114423;28;20093;-40
2023/01/11 01:47:46;;;;;;;8.50;2.25;;;;;;;24.76;35.93;101229.66;5095004;28;20393;-41
2023/01/11 01:50:17;;;;;;;5.85;2.35;;;;;;;24.84;35.80;101238.50;5088584;28;20059;-42
2023/01/11 01:52:50;;;;;;;10.30;2.70;;;;;;;24.82;35.79;101240.25;5114005;28;20110;-45
2023/01/11 01:55:27;;;;;;;6.20;2.20;;;;;;;24.83;35.48;101242.88;5114766;28;20027;-44
2023/01/11 01:57:55;;;;;;;7.95;2.35;;;;;;;24.82;35.59;101256.00;5114074;28;20067;-40
2023/01/11 02:00:23;;;;;;;7.78;2.67;;;;;;;24.84;35.32;101249.00;5114218;28;20024;-40
2023/01/11 02:02:52;;;;;;;8.65;2.22;;;;;;;24.89;35.30;101252.56;5114269;28;20015;-42
2023/01/11 02:05:21;;;;;;;7.68;2.53;;;;;;;24.89;35.63;101257.81;5113920;28;20028;-40
2023/01/11 02:07:50;;;;;;;7.88;2.95;;;;;;;24.81;35.49;101256.84;5113594;28;20066;-43
2023/01/11 02:10:21;;;;;;;5.97;2.28;;;;;;;24.86;35.42;101263.94;5114362;28;20028;-43
2023/01/11 02:13:05;;;;;;;7.13;2.40;;;;;;;24.82;35.54;101266.50;5095948;28;20027;-40
2023/01/11 02:15:33;;;;;;;11.73;2.95;;;;;;;24.83;35.59;101277.00;5114185;28;20103;-40
2023/01/11 02:18:02;;;;;;;5.80;2.15;;;;;;;24.85;35.39;101300.63;5113647;28;20497;-42
2023/01/11 02:21:08;;;;;;;9.15;3.00;;;;;;;24.81;35.77;101299.69;5106635;28;20035;-45
2023/01/11 02:23:54;;;;;;;7.80;2.65;;;;;;;24.81;35.59;101293.59;5095687;28;20115;-43
2023/01/11 02:27:00;;;;;;;9.70;2.67;;;;;;;24.78;35.92;101301.41;5105993;28;20062;-42
2023/01/11 02:29:33;;;;;;;6.47;2.20;;;;;;;24.81;35.44;101310.19;5102842;28;20036;-44
2023/01/11 02:32:08;;;;;;;10.65;3.22;;;;;;;24.73;35.72;101312.72;5086677;28;20031;-45
2023/01/11 02:34:55;;;;;;;7.20;2.10;;;;;;;24.73;35.89;101324.97;5110655;28;20024;-44
2023/01/11 02:37:42;;;;;;;8.68;2.88;;;;;;;24.70;35.84;101330.16;5095821;28;20032;-41
2023/01/11 02:40:11;;;;;;;7.40;2.50;;;;;;;24.80;35.71;101325.94;5113653;28;20458;-41
2023/01/11 02:45:54;;;;;;;9.73;3.53;;;;;;;24.72;35.63;101337.19;5094448;28;20108;-43
2023/01/11 02:48:49;;;;;;;7.22;2.33;;;;;;;24.68;36.05;101344.94;5106452;28;20040;-41
2023/01/11 02:51:22;;;;;;;7.68;2.50;;;;;;;24.72;35.86;101344.19;5109656;28;20497;-45
2023/01/11 02:53:55;;;;;;;10.00;2.38;;;;;;;24.71;35.93;101345.03;5094919;28;20110;-45
2023/01/11 02:56:27;;;;;;;9.32;2.60;;;;;;;24.71;35.72;101353.78;5095506;28;20382;-42
2023/01/11 02:58:57;;;;;;;8.70;2.70;;;;;;;24.69;35.80;101349.34;5113294;28;20395;-44
2023/01/11 03:01:25;;;;;;;6.82;2.15;;;;;;;24.69;35.90;101362.47;5113299;28;20028;-41
2023/01/11 03:03:55;;;;;;;6.32;2.13;;;;;;;24.67;36.06;101359.78;5113507;28;20030;-41
2023/01/11 03:06:26;;;;;;;6.05;2.10;;;;;;;24.68;35.60;101358.94;5113363;28;20488;-41
2023/01/11 03:09:14;;;;;;;5.07;2.10;;;;;;;24.68;35.84;101364.19;5095244;28;20104;-41
2023/01/11 03:13:02;;;;;;;8.15;2.33;;;;;;;24.61;35.93;101357.09;5095017;28;20082;-42
2023/01/11 03:15:36;;;;;;;7.38;2.50;;;;;;;24.66;35.55;101349.28;5102550;28;20081;-40
2023/01/11 03:18:08;;;;;;;6.60;2.40;;;;;;;24.68;35.74;101352.81;5105164;28;20040;-43
2023/01/11 03:20:41;;;;;;;9.75;3.33;;;;;;;24.68;35.71;101355.44;5113228;28;20023;-47
2023/01/11 03:23:24;;;;;;;10.15;2.78;;;;;;;24.56;35.49;101329.88;5113183;28;20032;-41
2023/01/11 03:26:12;;;;;;;10.18;3.15;;;;;;;24.65;35.83;101353.66;5078283;28;20583;-43
2023/01/11 03:28:49;;;;;;;8.43;2.30;;;;;;;24.64;35.71;101353.63;5087049;28;20122;-42
2023/01/11 03:31:37;;;;;;;7.82;2.35;;;;;;;24.65;35.93;101363.25;5113111;28;20035;-42
2023/01/11 03:34:16;;;;;;;6.97;2.40;;;;;;;24.65;35.99;101360.63;5086306;28;20124;-44
2023/01/11 03:36:59;;;;;;;7.20;2.10;;;;;;;24.60;35.99;101363.19;5095539;28;20020;-48
2023/01/11 03:39:31;;;;;;;6.35;2.17;;;;;;;24.69;35.55;101355.44;5095348;28;20023;-43
2023/01/11 03:42:01;;;;;;;7.07;2.33;;;;;;;24.70;35.78;101359.88;5112811;28;20024;-41
2023/01/11 03:44:35;;;;;;;8.00;2.55;;;;;;;24.68;35.68;101358.94;5095106;28;20038;-42
2023/01/11 03:47:06;;;;;;;5.53;2.45;;;;;;;24.68;35.51;101358.94;5114579;28;20027;-41
2023/01/11 03:49:42;;;;;;;5.20;2.03;;;;;;;24.66;35.92;101354.53;5098548;28;20039;-48
2023/01/11 03:52:14;;;;;;;10.43;2.70;;;;;;;24.68;35.65;101353.69;5099292;28;20485;-48
2023/01/11 03:54:44;;;;;;;8.95;2.90;;;;;;;24.70;35.49;101361.63;5117033;28;20050;-41
2023/01/11 03:57:16;;;;;;;4.18;1.77;;;;;;;24.67;35.51;101365.03;5098466;28;20051;-40
2023/01/11 03:59:45;;;;;;;7.78;2.55;;;;;;;24.70;35.62;101369.50;5116438;28;20027;-47
2023/01/11 04:02:27;;;;;;;5.70;1.90;;;;;;;24.66;35.25;101358.03;5098669;28;20039;-43
2023/01/11 04:04:56;;;;;;;12.07;3.08;;;;;;;24.64;35.86;101359.75;5098277;28;20426;-44
2023/01/11 04:07:24;;;;;;;7.53;2.45;;;;;;;24.65;35.39;101365.88;5116705;28;20035;-44
2023/01/11 04:09:53;;;;;;;7.20;1.75;;;;;;;24.66;35.55;101365.03;5116535;28;20019;-42
2023/01/11 04:12:21;;;;;;;6.43;2.03;;;;;;;24.65;35.54;101369.41;5116523;28;20027;-43
2023/01/11 04:14:50;;;;;;;7.63;2.53;;;;;;;24.66;35.74;101376.38;5116429;28;20023;-43
2023/01/11 04:17:18;;;;;;;5.40;1.98;;;;;;;24.62;35.61;101376.31;5116483;28;20362;-45
2023/01/11 04:19:47;;;;;;;6.72;2.00;;;;;;;24.63;35.72;101381.59;5097970;28;20024;-42
2023/01/11 04:22:15;;;;;;;7.25;2.55;;;;;;;24.58;35.42;101383.25;5115952;28;20023;-43
2023/01/11 04:24:44;;;;;;;5.75;1.80;;;;;;;24.58;35.99;101393.75;5115601;28;20020;-45
2023/01/11 04:27:12;;;;;;;7.28;2.15;;;;;;;24.56;35.73;101401.59;5115814;28;20027;-47
2023/01/11 04:29:41;;;;;;;7.72;2.15;;;;;;;24.55;35.52;101401.56;5116410;28;20037;-42
2023/01/11 04:32:10;;;;;;;8.80;2.42;;;;;;;24.61;35.51;101404.31;5116206;28;20027;-44
2023/01/11 04:34:38;;;;;;;5.80;1.92;;;;;;;24.66;35.49;101409.63;5115906;28;20496;-44
2023/01/11 04:37:07;;;;;;;6.38;1.90;;;;;;;24.67;35.29;101417.50;5115520;28;20039;-44
2023/01/11 04:39:35;;;;;;;6.97;1.88;;;;;;;24.63;35.77;101412.19;5115690;28;20460;-45
2023/01/11 04:42:24;;;;;;;3.92;1.73;;;;;;;24.65;35.48;101429.75;5115878;28;20115;-43
2023/01/11 04:44:52;;;;;;;6.97;2.28;;;;;;;24.66;35.38;101420.97;5106275;28;20036;-46
2023/01/11 04:47:22;;;;;;;5.00;1.88;;;;;;;24.61;35.77;101430.53;5115339;28;20024;-43
2023/01/11 04:49:51;;;;;;;6.15;1.92;;;;;;;24.56;35.37;101430.47;5115917;28;20382;-47
2023/01/11 04:52:20;;;;;;;6.93;1.98;;;;;;;24.57;35.44;101441.81;5115905;28;20034;-44
2023/01/11 04:54:51;;;;;;;4.53;1.88;;;;;;;24.56;35.83;101437.44;5097380;28;20024;-42
2023/01/11 04:57:19;;;;;;;6.22;2.05;;;;;;;24.61;35.82;101442.75;5114817;28;20051;-45
2023/01/11 04:59:48;;;;;;;5.28;1.98;;;;;;;24.67;35.48;101437.63;5115578;28;20091;-42
2023/01/11 05:02:18;;;;;;;9.98;2.25;;;;;;;24.60;35.77;101441.88;5115441;28;20035;-41
2023/01/11 05:04:46;;;;;;;5.97;1.55;;;;;;;24.60;35.40;101444.50;5096967;28;20046;-41
2023/01/11 05:07:15;;;;;;;8.10;2.45;;;;;;;24.62;35.51;101441.88;5115492;28;20027;-40
2023/01/11 05:09:44;;;;;;;6.15;1.73;;;;;;;24.60;35.73;101451.47;5115187;28;20043;-44
2023/01/11 05:12:11;;;;;;;8.40;2.00;;;;;;;24.54;35.34;101454.88;5115450;28;20030;-41
2023/01/11 05:14:40;;;;;;;7.13;2.45;;;;;;;24.58;35.50;101469.81;5115088;28;20065;-41
2023/01/11 05:17:08;;;;;;;9.52;2.13;;;;;;;24.59;35.56;101468.97;5115077;28;20027;-42
2023/01/11 05:19:36;;;;;;;4.80;1.77;;;;;;;24.58;35.40;101477.69;5097241;28;20027;-41
2023/01/11 05:22:04;;;;;;;4.45;1.48;;;;;;;24.58;35.42;101478.56;5114833;28;20027;-42
2023/01/11 05:24:33;;;;;;;6.47;1.70;;;;;;;24.60;35.38;101482.94;5115025;28;20059;-46
2023/01/11 05:27:02;;;;;;;6.43;1.70;;;;;;;24.61;35.46;101487.34;5115014;28;20494;-45
2023/01/11 05:29:31;;;;;;;4.30;1.83;;;;;;;24.60;35.45;101491.72;5114785;28;20028;-43
2023/01/11 05:31:59;;;;;;;4.75;1.63;;;;;;;24.60;35.60;101504.84;5114904;28;20037;-41
2023/01/11 05:34:28;;;;;;;6.90;1.85;;;;;;;24.63;35.30;101501.38;5114733;28;20026;-41
2023/01/11 05:36:55;;;;;;;5.20;2.28;;;;;;;24.63;35.20;101509.25;5115020;28;20023;-44
2023/01/11 05:39:24;;;;;;;5.05;2.20;;;;;;;24.55;35.68;101509.09;5114886;28;20387;-45
2023/01/11 05:41:53;;;;;;;6.40;2.28;;;;;;;24.56;35.31;101518.75;5114701;28;20134;-42
2023/01/11 05:47:08;;;;;;;7.28;2.20;;;;;;;24.57;35.61;101521.38;5107127;28;20364;-45
2023/01/11 05:49:36;;;;;;;7.28;2.05;;;;;;;24.62;35.44;101538.94;5114480;28;20030;-44
2023/01/11 05:52:05;;;;;;;5.63;2.28;;;;;;;24.58;35.73;101545.88;5114474;28;20490;-43
2023/01/11 05:54:34;;;;;;;7.57;2.20;;;;;;;24.54;35.38;101544.06;5114466;28;20106;-44
2023/01/11 05:57:02;;;;;;;3.78;1.73;;;;;;;24.55;35.29;101548.44;5114488;28;20061;-44
2023/01/11 05:59:31;;;;;;;6.80;1.98;;;;;;;24.55;35.60;101556.31;5096297;28;20451;-41
2023/01/11 06:01:59;;;;;;;4.93;1.65;;;;;;;24.56;35.21;101558.09;5114221;28;20092;-40
2023/01/11 06:04:28;;;;;;;6.07;2.00;;;;;;;24.53;35.44;101565.88;5113961;28;20494;-44
2023/01/11 06:06:56;;;;;;;5.40;1.80;;;;;;;24.52;35.42;101564.13;5079326;28;20034;-42
2023/01/11 06:09:25;;;;;;;7.38;2.00;;;;;;;24.50;35.40;101557.94;5095647;28;20486;-42
2023/01/11 06:11:54;;;;;;;5.38;2.00;;;;;;;24.54;35.78;101572.91;5114224;28;20071;-40
2023/01/11 06:14:22;;;;;;;7.22;2.00;;;;;;;24.47;35.40;101571.91;5096169;28;20113;-43
2023/01/11 06:16:51;;;;;;;7.25;2.13;;;;;;;24.50;35.62;101585.06;5114074;28;20024;-42
2023/01/11 06:19:19;;;;;;;6.80;1.90;;;;;;;24.49;35.53;101591.19;5095918;28;20043;-42
2023/01/11 06:21:47;;;;;;;6.32;2.30;;;;;;;24.49;35.69;101583.31;5113650;28;20031;-42
2023/01/11 06:24:16;;;;;;;7.55;2.53;;;;;;;24.50;35.70;101592.03;5113409;28;20051;-41
2023/01/11 06:26:45;;;;;;;5.55;2.00;;;;;;;24.47;35.36;101592.00;5113828;28;20024;-42
2023/01/11 06:29:13;;;;;;;6.85;2.13;;;;;;;24.47;35.61;101592.88;5113704;28;20071;-47
2023/01/11 06:31:42;;;;;;;4.38;1.90;;;;;;;24.49;35.43;101609.53;5113609;28;20476;-43
2023/01/11 06:34:09;;;;;;;5.93;2.28;;;;;;;24.50;35.71;101610.41;5095574;28;20031;-42
2023/01/11 06:36:39;;;;;;;6.70;1.90;;;;;;;24.47;35.34;101610.38;5113576;28;20019;-40
2023/01/11 06:39:07;;;;;;;5.15;1.85;;;;;;;24.50;35.46;101610.41;5113571;28;20028;-41
2023/01/11 06:41:36;;;;;;;4.65;1.95;;;;;;;24.49;35.39;101609.53;5113877;28;20027;-43
2023/01/11 06:44:05;;;;;;;6.75;1.58;;;;;;;24.47;35.67;101618.22;5113798;28;20382;-41
2023/01/11 06:46:33;;;;;;;8.85;2.20;;;;;;;24.48;35.75;101623.50;5113550;28;20075;-41
2023/01/11 06:49:03;;;;;;;4.13;1.75;;;;;;;24.50;35.58;101626.13;5113569;28;20034;-43
2023/01/11 06:51:31;;;;;;;5.93;2.03;;;;;;;24.49;35.34;101625.28;5113562;28;20028;-41
2023/01/11 06:54:00;;;;;;;4.90;1.80;;;;;;;24.48;35.70;101641.84;5114137;28;20505;-41
2023/01/11 06:56:28;;;;;;;10.75;2.78;;;;;;;24.52;35.65;101642.81;5113312;28;20539;-40
2023/01/11 06:58:57;;;;;;;9.77;2.25;;;;;;;24.43;35.36;101641.75;5113535;28;20516;-41
2023/01/11 07:01:26;;;;;;;6.32;1.83;;;;;;;24.50;35.56;101650.66;5113778;28;20027;-41
2023/01/11 07:03:54;;;;;;;12.27;2.28;;;;;;;24.56;35.57;101644.66;5113439;28;20046;-41
2023/01/11 07:06:23;;;;;;;6.50;2.03;;;;;;;24.61;35.07;101658.75;5113645;28;20027;-41
2023/01/11 07:08:51;;;;;;;10.43;2.63;;;;;;;24.57;35.42;101651.66;5113236;28;20043;-41
2023/01/11 07:11:18;;;;;;;8.75;2.22;;;;;;;24.55;35.55;101663.84;5113571;28;20088;-41
2023/01/11 07:13:47;;;;;;;8.50;2.00;;;;;;;24.55;35.23;101661.22;5113224;28;20034;-42
2023/01/11 07:16:16;;;;;;;6.57;2.20;;;;;;;24.52;35.54;101663.78;5113414;28;20127;-40
2023/01/11 07:18:44;;;;;;;8.30;2.05;;;;;;;24.48;35.61;101665.47;5113521;28;20065;-41
2023/01/11 07:21:13;;;;;;;5.68;1.95;;;;;;;24.49;35.62;101676.84;5115886;28;20020;-40
2023/01/11 07:23:42;;;;;;;7.28;2.03;;;;;;;24.49;35.41;101672.47;5117377;28;20024;-41
2023/01/11 07:26:10;;;;;;;5.72;2.15;;;;;;;24.53;35.44;101678.66;5117270;28;20026;-41
2023/01/11 07:28:39;;;;;;;6.72;1.85;;;;;;;24.51;35.69;101683.91;5117538;28;20028;-41
2023/01/11 07:31:08;;;;;;;7.45;1.98;;;;;;;24.48;35.68;101681.19;5117743;28;20027;-41
2023/01/11 07:33:36;;;;;;;5.95;1.90;;;;;;;24.51;35.55;101693.47;5117242;28;20030;-41
2023/01/11 07:36:05;;;;;;;4.32;1.42;;;;;;;24.51;35.66;101696.09;5116910;28;20440;-41
2023/01/11 07:38:33;;;;;;;7.15;2.35;;;;;;;24.54;35.29;101710.19;5117137;28;20544;-41
2023/01/11 07:43:10;;;;;;;5.32;2.28;;;;;;;24.53;35.45;101711.06;5117250;28;20035;-42
2023/01/11 07:43:51;;;;;;;6.80;2.13;;;;;;;24.51;35.56;101706.59;5116354;28;20064;-40
2023/01/11 07:46:19;;;;;;;6.72;2.00;;;;;;;24.51;35.38;101714.47;5116975;28;20106;-41
2023/01/11 07:48:48;;;;;;;6.78;1.70;;;;;;;24.53;35.59;101710.16;5116854;28;20027;-41
2023/01/11 07:51:19;;;;;;;6.00;1.52;;;;;;;24.52;35.26;101719.78;5116865;28;20042;-41
2023/01/11 07:53:48;;;;;;;3.67;1.50;;;;;;;24.50;35.70;101710.06;5116873;28;20419;-41
2023/01/11 07:56:16;;;;;;;4.50;1.70;;;;;;;24.46;35.70;101710.88;5116815;28;20063;-41
2023/01/11 07:58:45;;;;;;;11.20;1.58;;;;;;;24.49;35.34;101713.56;5116947;28;20040;-40
2023/01/11 08:01:14;;;;;;;7.78;1.98;;;;;;;24.50;35.35;101718.84;5116800;28;20039;-42
2023/01/11 08:03:42;;;;;;;4.90;1.67;;;;;;;24.50;35.76;101715.31;5116807;28;20026;-44
2023/01/11 08:06:11;;;;;;;6.45;1.70;;;;;;;24.53;35.64;101718.91;5116458;28;20478;-40
2023/01/11 08:08:39;;;;;;;5.07;1.67;;;;;;;24.52;35.27;101717.16;5116832;28;20482;-41
2023/01/11 08:16:43;;;;;;;5.90;1.50;;;;;;;24.46;35.62;101724.88;5109097;28;20035;-43
2023/01/11 08:19:11;;;;;;;7.00;1.73;;;;;;;24.47;35.34;101715.28;5116318;28;20371;-41
2023/01/11 08:21:40;;;;;;;8.30;1.55;;;;;;;24.51;35.25;101722.34;5116232;28;20038;-41
2023/01/11 08:24:08;;;;;;;7.85;2.00;;;;;;;24.48;35.38;101728.41;5116049;28;20428;-41
2023/01/11 08:26:37;;;;;;;8.05;2.25;;;;;;;24.53;35.50;101734.66;5116134;28;20019;-40
2023/01/11 08:29:06;;;;;;;4.72;1.60;;;;;;;24.64;34.96;101740.16;5116349;28;20450;-41
2023/01/11 08:31:34;;;;;;;7.32;1.85;;;;;;;24.62;35.24;101747.09;5115503;28;20028;-41
2023/01/11 08:34:03;;;;;;;5.60;1.92;;;;;;;24.53;35.54;101750.41;5115946;28;20026;-41
2023/01/11 08:36:32;;;;;;;6.30;2.22;;;;;;;24.57;35.08;101762.72;5115935;28;20055;-41
2023/01/11 08:39:00;;;;;;;4.35;1.52;;;;;;;24.58;35.31;101766.22;5115924;28;20547;-42
2023/01/11 08:41:27;;;;;;;5.53;2.05;;;;;;;24.59;35.10;101768.00;5115515;28;20035;-41
2023/01/11 08:43:56;;;;;;;8.00;1.88;;;;;;;24.53;35.52;101755.66;5116101;28;20102;-42
2023/01/11 08:46:23;;;;;;;8.00;1.83;;;;;;;24.53;35.55;101760.88;5115587;28;20055;-41
2023/01/11 08:48:52;;;;;;;5.65;1.70;;;;;;;24.47;35.63;101755.50;5115933;28;20107;-41
2023/01/11 08:51:20;;;;;;;6.63;1.55;;;;;;;24.56;35.09;101767.94;5113865;27;20024;-42
2023/01/11 08:53:49;;;;;;;5.85;1.58;;;;;;;24.57;35.09;101775.81;5123040;27;20043;-40
2023/01/11 08:56:16;;;;;;;7.97;2.00;;;;;;;24.57;35.41;101774.94;5105159;28;20031;-41
2023/01/11 08:58:43;;;;;;;6.85;2.13;;;;;;;24.53;35.53;101783.59;5118742;27;20043;-41
2023/01/11 09:01:12;;;;;;;9.57;2.15;;;;;;;24.52;35.35;101782.72;5125703;27;20106;-40
2023/01/11 09:03:40;;;;;;;4.35;1.98;;;;;;;24.53;35.49;101787.13;5123613;27;20032;-40
2023/01/11 09:06:07;;;;;;;4.68;1.35;;;;;;;24.52;35.72;101771.31;5125432;27;20030;-41
2023/01/11 09:08:35;;;;;;;11.15;2.33;;;;;;;24.58;35.16;101788.09;5105613;27;20058;-39
2023/01/11 09:11:52;;;;;;;6.82;1.95;;;;;;;24.55;35.50;101787.13;5122904;27;20378;-40
2023/01/11 09:13:49;;;;;;;4.95;1.85;;;;;;;24.52;35.59;101797.56;5118980;27;20112;-42
2023/01/11 09:16:16;;;;;;;5.65;1.77;;;;;;;24.50;35.77;101794.91;5123093;27;20073;-40
2023/01/11 09:18:43;;;;;;;7.88;2.08;;;;;;;24.48;35.76;101791.34;5125951;27;20054;-41
2023/01/11 09:21:11;;;;;;;6.00;1.85;;;;;;;24.54;35.39;101806.34;5086497;27;20027;-40
2023/01/11 09:23:39;;;;;;;6.00;1.67;;;;;;;24.50;35.59;101823.75;5105460;27;20359;-40
2023/01/11 09:26:08;;;;;;;5.88;1.77;;;;;;;24.48;35.62;101828.06;5114933;28;20386;-41
2023/01/11 09:28:36;;;;;;;8.27;2.00;;;;;;;24.49;35.27;101828.97;5096919;28;20394;-40
2023/01/11 09:31:05;;;;;;;7.72;1.70;;;;;;;24.52;35.34;101848.28;5114719;28;20033;-40
2023/01/11 09:33:34;;;;;;;4.35;1.63;;;;;;;24.66;35.19;101837.25;5115151;28;20024;-43
2023/01/11 09:36:02;;;;;;;4.93;1.48;;;;;;;24.57;35.32;101830.91;5114729;28;20032;-41
2023/01/11 09:38:32;;;;;;;6.38;1.85;;;;;;;24.52;35.47;101835.19;5114634;28;20172;-41
2023/01/11 09:41:25;;;;;;;8.27;1.83;;;;;;;24.52;35.32;101842.16;5115034;28;20444;-40
2023/01/11 09:44:22;;;;;;;6.88;1.50;;;;;;;24.48;35.49;101833.31;5114817;28;20378;-39
2023/01/11 09:46:55;;;;;;;5.13;1.60;;;;;;;24.51;35.13;101830.78;5089538;28;20120;-40
2023/01/11 09:49:28;;;;;;;5.43;1.63;;;;;;;24.52;35.56;101843.06;5114786;28;20027;-41
2023/01/11 09:52:23;;;;;;;6.03;2.42;;;;;;;24.47;35.47;101830.69;5114646;28;20032;-41
2023/01/11 09:54:52;;;;;;;5.18;1.60;;;;;;;24.45;35.72;101838.50;5103997;28;20397;-45
2023/01/11 09:57:40;;;;;;;5.82;2.17;;;;;;;24.45;35.64;101842.88;5114463;28;20485;-41
2023/01/11 10:00:28;;;;;;;6.53;1.70;;;;;;;24.48;35.70;101848.19;5114666;28;20060;-41
2023/01/11 10:03:03;;;;;;;6.18;1.58;;;;;;;24.53;35.47;101854.41;5105596;28;20043;-41
2023/01/11 10:05:45;;;;;;;8.27;2.10;;;;;;;24.54;35.48;101858.81;5096578;28;20031;-41
2023/01/11 10:08:52;;;;;;;5.95;1.90;;;;;;;24.50;35.49;101857.88;5113974;28;20062;-41
2023/01/11 10:11:48;;;;;;;5.72;2.08;;;;;;;24.60;35.09;101852.81;5106779;28;20114;-40
2023/01/11 10:14:34;;;;;;;6.05;1.73;;;;;;;24.58;35.08;101850.19;5106681;28;20028;-42
2023/01/11 10:17:16;;;;;;;4.70;1.42;;;;;;;24.54;34.91;101835.22;5114323;28;20114;-42
2023/01/11 10:19:49;;;;;;;5.03;1.73;;;;;;;24.64;35.04;101860.84;5114057;28;20390;-41
2023/01/11 10:22:22;;;;;;;3.63;1.33;;;;;;;24.69;34.84;101866.19;5095909;28;20386;-43
2023/01/11 10:24:55;;;;;;;5.32;2.03;;;;;;;24.63;35.25;101872.19;5114058;28;20018;-40
2023/01/11 10:27:48;;;;;;;6.85;2.20;;;;;;;24.58;35.05;101871.16;5114169;28;20110;-41
2023/01/11 10:30:34;;;;;;;13.30;2.25;;;;;;;24.61;35.15;101873.88;5089233;28;20088;-43
2023/01/11 10:36:13;;;;;;;4.82;1.65;;;;;;;24.58;35.22;101872.03;5100554;28;20032;-51
2023/01/11 10:38:58;;;;;;;5.28;2.03;;;;;;;24.54;35.27;101885.94;5086414;28;20027;-48
2023/01/11 10:41:45;;;;;;;8.43;2.17;;;;;;;24.59;35.41;101899.19;5093566;28;20152;-46
2023/01/11 10:44:22;;;;;;;5.05;1.55;;;;;;;24.61;35.24;101896.56;5113235;28;20030;-41
2023/01/11 10:46:52;;;;;;;8.63;2.25;;;;;;;24.58;35.41;101893.03;5096246;28;20474;-42
2023/01/11 10:49:25;;;;;;;4.00;1.80;;;;;;;24.57;35.43;101895.63;5095684;28;20474;-40
2023/01/11 10:51:57;;;;;;;2.72;1.20;;;;;;;24.60;35.37;101900.94;5114003;28;20024;-48
2023/01/11 10:54:32;;;;;;;6.53;1.98;;;;;;;24.68;35.03;101888.03;5113295;28;20047;-50
2023/01/11 10:57:32;;;;;;;5.78;1.45;;;;;;;24.68;35.30;101881.03;5095503;28;20027;-42
2023/01/11 11:00:17;;;;;;;8.25;2.20;;;;;;;24.82;34.70;101888.41;5091793;28;20043;-40
2023/01/11 11:03:03;;;;;;;6.32;1.65;;;;;;;24.92;34.55;101885.13;5095520;28;20027;-40
2023/01/11 11:05:44;;;;;;;4.85;1.90;;;;;;;24.84;34.72;101884.06;5095961;28;20035;-41
2023/01/11 11:08:21;;;;;;;5.00;1.67;;;;;;;24.87;34.65;101886.75;5113628;28;20019;-40
2023/01/11 11:11:13;;;;;;;6.10;1.60;;;;;;;24.82;34.85;101880.53;5113402;28;20027;-40
2023/01/11 11:13:53;;;;;;;7.18;2.13;;;;;;;24.72;34.94;101888.16;5105671;28;20135;-40
2023/01/11 11:16:23;;;;;;;7.50;1.92;;;;;;;24.85;34.85;101884.09;5112980;28;20027;-40
2023/01/11 11:18:54;;;;;;;6.68;1.92;;;;;;;24.73;35.25;101884.69;5113301;28;20027;-41
2023/01/11 11:21:27;;;;;;;5.43;1.85;;;;;;;24.85;34.75;101902.47;5095200;28;20063;-42
2023/01/11 11:24:00;;;;;;;5.47;1.92;;;;;;;24.93;34.60;101894.78;5096830;28;20015;-42
2023/01/11 11:26:36;;;;;;;9.13;2.47;;;;;;;24.73;35.30;101876.81;5074961;28;20028;-41
2023/01/11 11:29:07;;;;;;;7.18;2.25;;;;;;;24.76;34.74;101883.88;5093085;28;20039;-41
2023/01/11 11:31:38;;;;;;;5.43;1.55;;;;;;;24.76;35.03;101886.50;5093048;28;20024;-41
2023/01/11 11:34:14;;;;;;;4.60;1.67;;;;;;;24.73;35.21;101891.69;5074154;28;20466;-41
2023/01/11 11:36:45;;;;;;;8.57;2.25;;;;;;;24.73;34.89;101899.56;5074483;28;20406;-42
2023/01/11 11:39:32;;;;;;;4.80;1.60;;;;;;;24.65;35.57;101901.06;5092558;28;20144;-41
2023/01/11 11:42:08;;;;;;;6.57;2.00;;;;;;;24.65;35.50;101898.44;5092467;28;20466;-42
2023/01/11 11:44:36;;;;;;;5.80;1.90;;;;;;;24.70;35.08;101895.09;5092687;28;20048;-41
2023/01/11 11:47:06;;;;;;;8.43;2.50;;;;;;;24.69;35.42;101895.91;5092807;28;20063;-41
2023/01/11 11:49:37;;;;;;;7.63;2.13;;;;;;;24.62;35.54;101886.13;5092866;28;20028;-41
2023/01/11 11:52:06;;;;;;;9.40;2.40;;;;;;;24.66;35.49;101889.72;5092495;28;20364;-41
2023/01/11 11:54:39;;;;;;;6.22;1.83;;;;;;;24.65;35.41;101886.22;5092689;28;20023;-42
2023/01/11 11:57:27;;;;;;;9.13;2.15;;;;;;;24.63;35.49;101893.16;5075082;28;20486;-41
2023/01/11 12:00:33;;;;;;;10.65;1.98;;;;;;;24.65;35.36;101888.84;5074869;28;20538;-41
2023/01/11 12:03:04;;;;;;;7.18;2.03;;;;;;;24.62;35.79;101906.22;5085555;28;20096;-41
2023/01/11 12:05:32;;;;;;;5.75;2.10;;;;;;;24.65;35.67;101901.06;5092522;28;20428;-41
2023/01/11 12:08:01;;;;;;;6.47;2.17;;;;;;;24.72;35.43;101911.78;5076148;28;20024;-41
2023/01/11 12:10:31;;;;;;;8.02;2.10;;;;;;;24.78;35.42;101915.41;5078523;28;20422;-42
2023/01/11 12:13:01;;;;;;;9.05;2.50;;;;;;;24.71;35.55;101915.25;5077724;28;20183;-43